Ana Sayfa
METAR-TAF:

METAR-TAF

Havaalanları :

Atlanta, Georgia, Amerika Birleşik Devletleri

Enlem: 33-54-43N, Boylam: 084-56-26W, yükseklik: 393 m

Güncel hava durumu gözlemi

Rapor saat 18:15 UTC de 23 dakika önce yapıldı.
Rüzgar kuzeybatıdan 4 kt
Sıcaklık 32°C
Nem 23%
Basınç 1017 hPa
Görüş mesafesi: 11.3 km
Açık gökyüzü

METAR: KPUJ 251815Z AUTO 31004KT 7SM CLR 32/08 A3002 RMK AO2

Saat: 14:38 (18:38 UTC)


TAF: eksik

4.000'den fazla havaalanı için hava durumu gözlemleri ve tahminleri (METAR ve TAF raporları).

Kullanılabilir istasyonlar harita üzerinde sarı ve kırmızı noktalarla gösterilir.

İstasyonun adını görmek için fareyi noktanın üzerinde gezdirin.

Sonrasında hava gözlem ve tahminlerini görmek için tıklayın.

Haritayı değiştirmek için: yaklaştırmak için siyah artı işaretli yeşil düğmeye ve uzaklaştırmak için de eksi işaretli düğmeye hızla tıklayın; bitişik haritalar için yeşil okları kullanın.


METAR-TAF: